Cheyenne — 9HAK5 — position and weather

sailwx.info

Track history (hours):
 
Tides and Currents Weather Stations Pressure Air Temp Water Temp Dewpoint Dewpoint Depression Visibility Wind Speed Wind Dir Waves Ship Positions

Cheyenne

Last reported at 2017-Apr-20 16:07 UTC. Time now 2017-Apr-26 15:43 UTC.
Position N 45°32' E 036°49'.

Length 133 m; draft 2.8 m.

Type: Ship. MMSI: 249607000.

Date/timePositionNaut miles runAvg speedWind from/ knotsBaromVisibWave heightAir tempDewpointWater temp
2017-Apr-20 16:07N 45°32' E 036°49'1 7.3
2017-Apr-20 16:01N 45°32' E 036°48'4 7.7
2017-Apr-20 15:31N 45°29' E 036°44'4 7.2
2017-Apr-20 15:01N 45°26' E 036°42'4 7.4
2017-Apr-20 14:30N 45°23' E 036°40'6 5.6
2017-Apr-20 13:30N 45°19' E 036°34'4 7.4
2017-Apr-20 13:00N 45°18' E 036°29'3 5.3
2017-Apr-20 12:30N 45°15' E 036°28'2 3.0
2017-Apr-20 11:59N 45°14' E 036°30'0 0.0
2017-Apr-20 11:23N 45°14' E 036°30'1 3.3
2017-Apr-20 11:00N 45°13' E 036°29'4 7.6
2017-Apr-20 10:30N 45°09' E 036°29'  
Track history (hours):
 
Tides and Currents Weather Stations Pressure Air Temp Water Temp Dewpoint Dewpoint Depression Visibility Wind Speed Wind Dir Waves Ship Positions

Cheyenne

Last reported at 2017-Apr-20 16:07 UTC. Time now 2017-Apr-26 15:43 UTC.
Position N 45°32' E 036°49'.

Length 133 m; draft 2.8 m.

Type: Ship. MMSI: 249607000.

Date/timePositionNaut miles runAvg speedWind from/ knotsBaromVisibWave heightAir tempDewpointWater temp
2017-Apr-20 16:07N 45°32' E 036°49'1 7.3
2017-Apr-20 16:01N 45°32' E 036°48'4 7.7
2017-Apr-20 15:31N 45°29' E 036°44'4 7.2
2017-Apr-20 15:01N 45°26' E 036°42'4 7.4
2017-Apr-20 14:30N 45°23' E 036°40'6 5.6
2017-Apr-20 13:30N 45°19' E 036°34'4 7.4
2017-Apr-20 13:00N 45°18' E 036°29'3 5.3
2017-Apr-20 12:30N 45°15' E 036°28'2 3.0
2017-Apr-20 11:59N 45°14' E 036°30'0 0.0
2017-Apr-20 11:23N 45°14' E 036°30'1 3.3
2017-Apr-20 11:00N 45°13' E 036°29'4 7.6
2017-Apr-20 10:30N 45°09' E 036°29'  

Dump ship's entire track history